Time;durP1;ratioP1;P1;durP2;ratioP2;P2;SDS_P1;SDS_P2;PMS_P1;PMS_P2;Temp;Humidity;BMP_temperature;BMP_pressure;BME280_temperature;BME280_humidity;BME280_pressure;Samples;Min_cycle;Max_cycle;Signal;HPM_P1;HPM_P2
2022/08/18 00:00:48;;;;;;;49.88;27.80;;;20.80;82.40;;;;;;5114638;28;20032;-74
2022/08/18 00:03:14;;;;;;;50.88;28.33;;;20.80;82.50;;;;;;5114610;28;20024;-74
2022/08/18 00:05:40;;;;;;;47.83;27.50;;;20.80;82.40;;;;;;5114519;28;20079;-74
2022/08/18 00:08:06;;;;;;;52.67;28.50;;;20.80;82.60;;;;;;5114411;28;20020;-74
2022/08/18 00:10:32;;;;;;;53.97;29.35;;;20.80;82.60;;;;;;5114481;28;20035;-74
2022/08/18 00:12:58;;;;;;;51.83;27.63;;;20.80;82.80;;;;;;5114450;28;20023;-74
2022/08/18 00:15:24;;;;;;;52.42;28.98;;;20.80;82.80;;;;;;5114386;28;20021;-74
2022/08/18 00:17:50;;;;;;;50.28;28.50;;;20.80;82.70;;;;;;5114336;28;20475;-74
2022/08/18 00:20:19;;;;;;;52.35;29.08;;;20.80;82.70;;;;;;5114311;28;20028;-74
2022/08/18 00:22:46;;;;;;;51.42;27.85;;;20.90;82.90;;;;;;5114218;28;20077;-74
2022/08/18 00:25:14;;;;;;;53.90;28.75;;;20.90;82.90;;;;;;5114213;28;20487;-74
2022/08/18 00:27:43;;;;;;;51.08;27.90;;;20.90;82.90;;;;;;5114063;28;20070;-74
2022/08/18 00:30:15;;;;;;;52.03;27.70;;;20.90;82.90;;;;;;5114217;28;20024;-74
2022/08/18 00:32:43;;;;;;;50.25;26.35;;;20.80;83.00;;;;;;5114131;28;20024;-74
2022/08/18 00:35:25;;;;;;;47.60;26.42;;;20.80;83.40;;;;;;5114043;28;20028;-74
2022/08/18 00:37:53;;;;;;;49.17;26.83;;;20.80;83.40;;;;;;5114025;28;20035;-74
2022/08/18 00:40:22;;;;;;;48.30;26.42;;;20.90;83.20;;;;;;5113975;28;20020;-74
2022/08/18 00:42:54;;;;;;;48.08;26.80;;;20.90;83.20;;;;;;5113906;28;20053;-74
2022/08/18 00:45:41;;;;;;;48.47;26.38;;;21.00;83.20;;;;;;5114050;28;20028;-74
2022/08/18 00:48:09;;;;;;;47.72;26.35;;;21.00;82.70;;;;;;5113818;28;20020;-74
2022/08/18 00:50:57;;;;;;;48.03;26.90;;;21.00;82.80;;;;;;5113812;28;20016;-74
2022/08/18 00:53:26;;;;;;;48.95;26.83;;;21.00;82.80;;;;;;5113804;28;20024;-74
2022/08/18 00:55:53;;;;;;;46.95;25.70;;;21.00;82.80;;;;;;5113729;28;20062;-74
2022/08/18 00:58:40;;;;;;;44.80;24.35;;;21.00;82.70;;;;;;5113652;28;20028;-74
2022/08/18 01:01:08;;;;;;;47.10;24.90;;;21.10;83.30;;;;;;5113734;28;20024;-74
2022/08/18 01:03:38;;;;;;;44.85;25.27;;;21.00;82.40;;;;;;5113640;28;20080;-74
2022/08/18 01:06:13;;;;;;;46.65;25.02;;;21.00;82.20;;;;;;5113676;28;20039;-74
2022/08/18 01:08:39;;;;;;;45.67;25.30;;;21.00;82.30;;;;;;5113377;28;20048;-74
2022/08/18 01:11:05;;;;;;;43.97;24.33;;;21.00;82.70;;;;;;5113600;28;20016;-74
2022/08/18 01:13:32;;;;;;;46.83;25.58;;;21.00;82.90;;;;;;5112584;28;20093;-74
2022/08/18 01:21:49;;;;;;;45.67;24.90;;;21.00;83.10;;;;;;5113498;28;20023;-74
2022/08/18 01:21:49;;;;;;;46.25;24.55;;;21.10;83.10;;;;;;5120366;28;20066;-74
2022/08/18 01:24:16;;;;;;;41.72;22.73;;;21.10;83.00;;;;;;5120249;28;20040;-74
2022/08/18 01:26:48;;;;;;;44.70;23.45;;;21.10;83.10;;;;;;5120182;28;20089;-74
2022/08/18 01:29:16;;;;;;;42.13;23.10;;;21.10;83.20;;;;;;5120097;28;20487;-74
2022/08/18 01:31:48;;;;;;;40.03;22.65;;;21.10;83.30;;;;;;5120134;28;20054;-74
2022/08/18 01:34:15;;;;;;;46.78;23.58;;;21.10;83.40;;;;;;5120186;28;20016;-74
2022/08/18 01:36:41;;;;;;;41.90;23.67;;;21.10;83.20;;;;;;5120132;28;20094;-74
2022/08/18 01:39:10;;;;;;;42.80;23.98;;;21.10;83.30;;;;;;5120059;28;20028;-74
2022/08/18 01:41:36;;;;;;;40.67;22.00;;;21.10;83.50;;;;;;5120047;28;20024;-74
2022/08/18 01:44:04;;;;;;;40.83;22.98;;;21.10;83.60;;;;;;5120038;28;20088;-74
2022/08/18 01:46:32;;;;;;;41.10;21.58;;;21.10;83.50;;;;;;5119992;28;20028;-74
2022/08/18 01:49:00;;;;;;;38.38;21.60;;;21.10;83.50;;;;;;5119894;28;20028;-74
2022/08/18 01:51:28;;;;;;;42.13;22.30;;;21.10;83.40;;;;;;5119959;28;20024;-74
2022/08/18 01:53:55;;;;;;;35.08;20.63;;;21.10;83.50;;;;;;5119966;28;20027;-74
2022/08/18 01:56:21;;;;;;;39.85;21.83;;;21.00;83.60;;;;;;5119899;28;20032;-74
2022/08/18 01:58:47;;;;;;;37.40;20.40;;;21.00;83.50;;;;;;5119954;28;20044;-74
2022/08/18 02:01:14;;;;;;;36.80;20.30;;;21.00;83.50;;;;;;5119851;28;20031;-74
2022/08/18 02:03:46;;;;;;;38.90;19.77;;;21.00;83.40;;;;;;5119828;28;20027;-74
2022/08/18 02:06:14;;;;;;;35.83;20.92;;;21.10;83.30;;;;;;5119906;28;20026;-74
2022/08/18 02:08:39;;;;;;;35.65;20.17;;;21.10;83.30;;;;;;5119432;28;20082;-74
2022/08/18 02:11:06;;;;;;;33.60;19.83;;;21.10;83.20;;;;;;5119771;28;20028;-74
2022/08/18 02:13:33;;;;;;;34.78;19.77;;;21.20;83.10;;;;;;5119800;28;20051;-74
2022/08/18 02:16:00;;;;;;;34.50;19.35;;;21.10;82.90;;;;;;5119714;28;20088;-74
2022/08/18 02:18:28;;;;;;;31.48;18.52;;;21.10;82.70;;;;;;5119700;28;20024;-74
2022/08/18 02:20:55;;;;;;;33.88;18.63;;;21.10;82.50;;;;;;5119719;28;20024;-74
2022/08/18 02:23:21;;;;;;;37.45;20.23;;;21.10;82.50;;;;;;5119677;28;20046;-74
2022/08/18 02:25:47;;;;;;;35.22;18.90;;;21.10;82.50;;;;;;5119634;28;20087;-74
2022/08/18 02:28:12;;;;;;;33.88;18.88;;;21.10;82.30;;;;;;5119462;28;20035;-74
2022/08/18 02:30:38;;;;;;;31.40;19.17;;;21.10;82.10;;;;;;5115320;28;20024;-74
2022/08/18 02:33:06;;;;;;;31.77;18.15;;;21.10;82.00;;;;;;5116378;28;20031;-74
2022/08/18 02:35:31;;;;;;;30.83;17.98;;;21.10;82.00;;;;;;5116326;28;20030;-74
2022/08/18 02:38:02;;;;;;;32.72;17.88;;;21.10;82.10;;;;;;5116272;28;20032;-74
2022/08/18 02:40:28;;;;;;;34.15;19.05;;;21.10;82.00;;;;;;5116373;28;20054;-74
2022/08/18 02:42:53;;;;;;;37.35;18.85;;;21.10;82.00;;;;;;5116202;28;20028;-74
2022/08/18 02:45:22;;;;;;;31.77;18.70;;;21.10;82.00;;;;;;5116122;28;20028;-74
2022/08/18 02:47:55;;;;;;;29.67;17.98;;;21.00;81.90;;;;;;5116028;28;20067;-74
2022/08/18 02:50:21;;;;;;;28.10;17.85;;;21.00;81.80;;;;;;5116100;28;20026;-74
2022/08/18 02:52:47;;;;;;;31.48;17.80;;;21.00;81.80;;;;;;5116010;28;20032;-74
2022/08/18 02:55:14;;;;;;;28.73;17.25;;;21.00;81.80;;;;;;5115063;28;20032;-74
2022/08/18 02:57:45;;;;;;;27.75;15.88;;;21.00;81.90;;;;;;5115923;28;20046;-74
2022/08/18 03:00:14;;;;;;;29.13;16.52;;;21.00;82.00;;;;;;5115895;28;20025;-74
2022/08/18 03:02:44;;;;;;;25.50;16.00;;;21.00;81.90;;;;;;5115801;28;20040;-74
2022/08/18 03:05:09;;;;;;;24.98;14.90;;;21.00;81.80;;;;;;5115761;28;20043;-74
2022/08/18 03:07:35;;;;;;;26.70;14.85;;;21.00;81.70;;;;;;5115643;28;20051;-74
2022/08/18 03:10:01;;;;;;;26.42;15.15;;;20.90;81.50;;;;;;5115495;28;20044;-74
2022/08/18 03:12:26;;;;;;;24.60;15.25;;;20.90;81.50;;;;;;5114674;28;20028;-75
2022/08/18 03:14:52;;;;;;;28.55;15.90;;;21.00;81.60;;;;;;5115547;28;20028;-74
2022/08/18 03:17:17;;;;;;;26.00;15.32;;;21.00;81.50;;;;;;5115523;28;20024;-74
2022/08/18 03:19:44;;;;;;;23.30;14.85;;;21.00;81.40;;;;;;5115490;28;20024;-74
2022/08/18 03:22:10;;;;;;;26.25;14.85;;;21.00;81.40;;;;;;5115437;28;20027;-74
2022/08/18 03:24:36;;;;;;;25.15;15.63;;;21.00;81.40;;;;;;5115397;28;20020;-74
2022/08/18 03:27:05;;;;;;;23.42;14.00;;;21.00;81.30;;;;;;5114375;28;20031;-74
2022/08/18 03:29:31;;;;;;;26.88;15.50;;;21.00;81.20;;;;;;5115200;28;20017;-74
2022/08/18 03:31:57;;;;;;;26.30;15.00;;;21.00;81.20;;;;;;5115228;28;20028;-74
2022/08/18 03:34:22;;;;;;;24.35;14.75;;;21.00;81.10;;;;;;5115181;28;20050;-74
2022/08/18 03:37:07;;;;;;;24.67;14.88;;;21.00;81.00;;;;;;5115278;28;20028;-74
2022/08/18 03:39:33;;;;;;;24.77;15.07;;;21.00;80.80;;;;;;5115146;28;20020;-75
2022/08/18 03:41:59;;;;;;;24.67;13.75;;;21.00;80.90;;;;;;5114705;28;20035;-75
2022/08/18 03:44:26;;;;;;;23.17;13.77;;;21.00;80.80;;;;;;5115118;28;20052;-74
2022/08/18 03:46:52;;;;;;;21.38;13.27;;;21.00;80.70;;;;;;5114949;28;20097;-74
2022/08/18 03:49:19;;;;;;;21.20;12.98;;;21.00;80.50;;;;;;5114819;28;20032;-74
2022/08/18 03:51:45;;;;;;;20.52;12.63;;;20.90;80.30;;;;;;5114881;28;20123;-74
2022/08/18 03:54:12;;;;;;;22.33;13.18;;;20.90;80.30;;;;;;5114813;28;20053;-74
2022/08/18 03:56:39;;;;;;;20.58;12.10;;;20.90;80.30;;;;;;5114811;28;20025;-74
2022/08/18 03:59:09;;;;;;;20.88;12.70;;;20.80;80.20;;;;;;5114710;28;20395;-74
2022/08/18 04:01:38;;;;;;;19.55;12.63;;;20.80;80.30;;;;;;5114819;28;20044;-74
2022/08/18 04:04:06;;;;;;;19.20;11.63;;;20.80;80.30;;;;;;5114592;28;20024;-74
2022/08/18 04:06:38;;;;;;;20.35;12.45;;;20.80;80.30;;;;;;5114567;28;20024;-75
2022/08/18 04:09:06;;;;;;;21.58;12.13;;;20.70;80.30;;;;;;5114476;28;20067;-74
2022/08/18 04:11:35;;;;;;;20.13;11.95;;;20.70;80.30;;;;;;5114476;28;20040;-75
2022/08/18 04:14:01;;;;;;;19.55;12.40;;;20.60;80.30;;;;;;5114424;28;20018;-75
2022/08/18 04:16:28;;;;;;;19.83;12.32;;;20.60;80.50;;;;;;5114390;28;20028;-74
2022/08/18 04:19:01;;;;;;;20.13;12.77;;;20.60;80.50;;;;;;5114372;28;20016;-75
2022/08/18 04:21:30;;;;;;;21.48;12.88;;;20.50;80.50;;;;;;5114497;28;20032;-74
2022/08/18 04:24:03;;;;;;;18.88;11.70;;;20.50;80.50;;;;;;5114250;28;20032;-74
2022/08/18 04:26:33;;;;;;;20.45;12.15;;;20.50;80.30;;;;;;5114314;28;20016;-74
2022/08/18 04:29:02;;;;;;;19.40;12.07;;;20.50;80.30;;;;;;5114152;28;20025;-74
2022/08/18 04:31:28;;;;;;;20.90;12.57;;;20.50;80.40;;;;;;5114152;28;20027;-75
2022/08/18 04:33:55;;;;;;;21.08;12.73;;;20.50;80.20;;;;;;5114083;28;20119;-74
2022/08/18 04:36:22;;;;;;;19.80;12.32;;;20.50;80.10;;;;;;5114045;28;20020;-74
2022/08/18 04:38:48;;;;;;;20.15;12.48;;;20.40;80.20;;;;;;5114182;28;20031;-74
2022/08/18 04:41:14;;;;;;;21.25;12.60;;;20.30;80.80;;;;;;5113953;28;20042;-74
2022/08/18 04:43:40;;;;;;;20.33;12.70;;;20.40;81.20;;;;;;5113812;28;20055;-74
2022/08/18 04:46:06;;;;;;;21.95;12.75;;;20.40;81.30;;;;;;5113891;28;20063;-74
2022/08/18 04:48:34;;;;;;;18.58;12.50;;;20.40;81.10;;;;;;5113790;28;20024;-74
2022/08/18 04:51:05;;;;;;;21.00;12.98;;;20.40;80.90;;;;;;5113826;28;20020;-74
2022/08/18 04:53:46;;;;;;;19.60;12.70;;;20.40;81.00;;;;;;5113135;28;20047;-74
2022/08/18 04:56:32;;;;;;;25.77;14.40;;;20.40;81.10;;;;;;5113906;28;20020;-74
2022/08/18 04:59:03;;;;;;;24.10;14.43;;;20.30;81.50;;;;;;5113768;28;20028;-74
2022/08/18 05:01:33;;;;;;;22.83;13.70;;;20.30;82.00;;;;;;5113860;28;20027;-74
2022/08/18 05:03:59;;;;;;;25.15;15.07;;;20.30;81.90;;;;;;5113727;28;20026;-74
2022/08/18 05:06:26;;;;;;;25.17;14.35;;;20.20;82.10;;;;;;5113645;28;20027;-74
2022/08/18 05:08:54;;;;;;;26.65;14.73;;;20.30;82.50;;;;;;5113344;28;20047;-74
2022/08/18 05:11:21;;;;;;;25.45;14.68;;;20.30;82.40;;;;;;5113707;28;20016;-75
2022/08/18 05:13:48;;;;;;;25.25;14.63;;;20.40;82.20;;;;;;5113496;28;20025;-74
2022/08/18 05:16:14;;;;;;;22.60;14.65;;;20.40;82.20;;;;;;5113496;28;20055;-75
2022/08/18 05:18:41;;;;;;;26.05;15.30;;;20.40;82.30;;;;;;5113477;28;20096;-74
2022/08/18 05:21:10;;;;;;;27.02;15.40;;;20.40;82.90;;;;;;5113474;28;20084;-74
2022/08/18 05:23:36;;;;;;;28.17;16.40;;;20.50;82.20;;;;;;5113444;28;20020;-74
2022/08/18 05:26:02;;;;;;;32.30;17.08;;;20.50;82.10;;;;;;5113433;28;20031;-74
2022/08/18 05:28:29;;;;;;;27.80;15.68;;;20.50;82.20;;;;;;5113236;28;20115;-74
2022/08/18 05:30:56;;;;;;;26.45;16.80;;;20.50;82.10;;;;;;5112352;28;20052;-74
2022/08/18 05:33:22;;;;;;;28.13;16.15;;;20.50;82.00;;;;;;5113347;28;20024;-74
2022/08/18 05:35:53;;;;;;;27.55;16.30;;;20.60;82.00;;;;;;5113333;28;20024;-74
2022/08/18 05:38:34;;;;;;;29.80;15.73;;;20.60;81.90;;;;;;5113325;28;20026;-74
2022/08/18 05:41:20;;;;;;;28.80;16.42;;;20.60;81.80;;;;;;5113456;28;20036;-74
2022/08/18 05:43:47;;;;;;;29.88;15.90;;;20.60;81.90;;;;;;5112261;28;20475;-75
2022/08/18 05:46:13;;;;;;;28.98;16.23;;;20.60;81.80;;;;;;5113240;28;20032;-75
2022/08/18 05:48:39;;;;;;;28.48;15.43;;;20.60;81.80;;;;;;5113110;28;20087;-74
2022/08/18 05:51:27;;;;;;;27.25;15.50;;;20.70;81.80;;;;;;5113332;28;20054;-74
2022/08/18 05:56:47;;;;;;;23.60;14.98;;;20.70;81.80;;;;;;5113258;28;20054;-74
2022/08/18 05:59:23;;;;;;;26.20;14.77;;;20.70;82.00;;;;;;5113311;28;20089;-75
2022/08/18 06:02:20;;;;;;;24.38;14.65;;;20.70;82.00;;;;;;5112163;28;20020;-75
2022/08/18 06:04:59;;;;;;;27.05;15.18;;;20.70;81.80;;;;;;5115542;28;20485;-75
2022/08/18 06:07:39;;;;;;;24.70;13.88;;;20.80;81.90;;;;;;5116861;28;20028;-74
2022/08/18 06:10:07;;;;;;;23.88;14.13;;;20.70;81.80;;;;;;5116753;28;20455;-74
2022/08/18 06:12:41;;;;;;;32.08;15.50;;;20.70;81.70;;;;;;5116827;28;20028;-74
2022/08/18 06:15:15;;;;;;;25.50;14.18;;;20.80;81.80;;;;;;5116941;28;20083;-74
2022/08/18 06:18:20;;;;;;;22.92;13.80;;;20.70;81.60;;;;;;5116876;28;20016;-74
2022/08/18 06:21:13;;;;;;;24.63;12.95;;;20.80;81.60;;;;;;5116802;28;20028;-74
2022/08/18 06:24:04;;;;;;;26.85;13.50;;;20.70;81.70;;;;;;5116633;28;20103;-74
2022/08/18 06:26:33;;;;;;;26.60;14.20;;;20.80;82.00;;;;;;5116609;28;20039;-74
2022/08/18 06:29:46;;;;;;;26.45;13.93;;;20.80;82.10;;;;;;5116429;28;20032;-74
2022/08/18 06:32:36;;;;;;;22.92;13.20;;;20.80;81.90;;;;;;5116631;28;20040;-74
2022/08/18 06:35:23;;;;;;;23.50;13.13;;;20.80;81.90;;;;;;5116400;28;20016;-74
2022/08/18 06:41:01;;;;;;;19.17;11.95;;;20.90;81.70;;;;;;5116328;28;20058;-74
2022/08/18 06:43:28;;;;;;;22.13;12.63;;;20.90;81.70;;;;;;5116276;28;20084;-74
2022/08/18 06:45:53;;;;;;;23.90;12.68;;;20.90;81.80;;;;;;5116334;28;20028;-74
2022/08/18 06:48:36;;;;;;;20.77;12.13;;;20.90;81.80;;;;;;5116056;28;20050;-74
2022/08/18 06:51:03;;;;;;;;;;;20.90;81.70;;;;;;5116659;28;20023;-74
2022/08/18 06:53:51;;;;;;;20.35;11.93;;;20.90;81.50;;;;;;5115997;28;19904;-74
2022/08/18 06:56:34;;;;;;;20.73;11.85;;;21.00;81.80;;;;;;5116104;28;20020;-74
2022/08/18 06:59:18;;;;;;;21.00;12.32;;;21.00;81.90;;;;;;5116097;28;20066;-74
2022/08/18 07:01:49;;;;;;;18.50;11.40;;;21.10;81.70;;;;;;5115854;28;20046;-74
2022/08/18 07:04:56;;;;;;;20.00;12.18;;;21.10;81.50;;;;;;5115862;28;20028;-74
2022/08/18 07:07:33;;;;;;;19.98;12.27;;;21.20;81.00;;;;;;5115676;28;20031;-74
2022/08/18 07:09:59;;;;;;;19.83;11.95;;;21.20;81.00;;;;;;5115576;28;20048;-74
2022/08/18 07:12:27;;;;;;;18.80;11.07;;;21.20;80.80;;;;;;5114790;28;20083;-74
2022/08/18 07:14:56;;;;;;;19.67;11.38;;;21.30;80.60;;;;;;5115418;28;20023;-74
2022/08/18 07:17:26;;;;;;;18.80;11.20;;;21.30;80.40;;;;;;5115180;28;20019;-74
2022/08/18 07:20:17;;;;;;;20.60;12.10;;;21.40;80.40;;;;;;5115549;28;20077;-74
2022/08/18 07:23:03;;;;;;;19.77;12.23;;;21.50;80.00;;;;;;5112702;28;20074;-74
2022/08/18 07:25:44;;;;;;;18.25;11.70;;;21.50;79.80;;;;;;5115416;28;20020;-74
2022/08/18 07:28:29;;;;;;;18.45;11.40;;;21.60;79.40;;;;;;5115173;28;20126;-74
2022/08/18 07:31:18;;;;;;;16.83;11.70;;;21.60;79.40;;;;;;5115430;28;20024;-74
2022/08/18 07:33:52;;;;;;;20.77;11.90;;;21.60;79.00;;;;;;5115260;28;20020;-74
2022/08/18 07:36:20;;;;;;;18.73;11.35;;;21.60;79.60;;;;;;5115270;28;20047;-74
2022/08/18 07:39:15;;;;;;;17.33;11.40;;;21.60;78.80;;;;;;5115119;28;20079;-74
2022/08/18 07:42:04;;;;;;;20.40;10.88;;;21.60;78.60;;;;;;5106418;28;20092;-74
2022/08/18 07:44:48;;;;;;;17.50;11.57;;;21.60;78.60;;;;;;5115200;28;20028;-74
2022/08/18 07:47:22;;;;;;;19.85;11.60;;;21.60;78.70;;;;;;5114949;28;20020;-74
2022/08/18 07:49:48;;;;;;;17.27;10.73;;;21.60;79.00;;;;;;5114964;28;20027;-74
2022/08/18 07:52:38;;;;;;;17.38;11.27;;;21.70;78.80;;;;;;5114840;28;20024;-74
2022/08/18 07:55:23;;;;;;;18.13;10.73;;;21.80;78.00;;;;;;5114818;28;20026;-74
2022/08/18 07:58:10;;;;;;;20.20;10.90;;;21.80;78.00;;;;;;5114973;28;20024;-74
2022/08/18 08:01:11;;;;;;;15.73;10.48;;;21.90;77.80;;;;;;5114806;28;20084;-74
2022/08/18 08:03:50;;;;;;;16.27;10.32;;;22.00;77.40;;;;;;5103078;28;20047;-74
2022/08/18 08:07:00;;;;;;;14.80;9.77;;;22.00;77.60;;;;;;5114762;28;20028;-74
2022/08/18 08:09:45;;;;;;;15.73;9.48;;;22.10;77.30;;;;;;5113025;28;20048;-74
2022/08/18 08:12:56;;;;;;;15.82;10.18;;;22.10;77.20;;;;;;5114547;28;20091;-74
2022/08/18 08:15:30;;;;;;;18.10;10.57;;;22.20;77.00;;;;;;5113771;28;20074;-74
2022/08/18 08:18:13;;;;;;;15.20;10.00;;;22.10;77.00;;;;;;5114568;28;20085;-74
2022/08/18 08:20:44;;;;;;;;;;;22.20;77.00;;;;;;5114960;28;20020;-74
2022/08/18 08:23:40;;;;;;;13.60;8.57;;;22.20;76.60;;;;;;5114331;28;19907;-74
2022/08/18 08:26:30;;;;;;;13.98;8.60;;;22.20;76.70;;;;;;5114316;28;20024;-74
2022/08/18 08:29:22;;;;;;;15.32;8.90;;;22.30;77.10;;;;;;5113370;28;20032;-74
2022/08/18 08:32:04;;;;;;;13.18;9.25;;;22.40;76.60;;;;;;5111148;28;20055;-74
2022/08/18 08:34:39;;;;;;;14.98;8.85;;;22.50;76.00;;;;;;5114115;28;20024;-74
2022/08/18 08:37:14;;;;;;;14.80;9.30;;;22.50;76.10;;;;;;5114263;28;20045;-74
2022/08/18 08:39:58;;;;;;;15.50;8.55;;;22.50;76.90;;;;;;5114070;28;20035;-74
2022/08/18 08:42:46;;;;;;;13.65;9.18;;;22.60;75.80;;;;;;5112812;28;20024;-74
2022/08/18 08:45:27;;;;;;;14.75;9.38;;;22.60;75.60;;;;;;5114013;28;20020;-74
2022/08/18 08:47:58;;;;;;;14.30;8.80;;;22.60;75.30;;;;;;5113977;28;20054;-75
2022/08/18 08:50:27;;;;;;;14.90;9.57;;;22.70;75.30;;;;;;5113982;28;20024;-74
2022/08/18 08:53:11;;;;;;;16.55;10.05;;;22.70;75.30;;;;;;5113817;28;20069;-74
2022/08/18 08:55:45;;;;;;;12.75;8.70;;;22.80;75.00;;;;;;5113793;28;20024;-74
2022/08/18 08:58:27;;;;;;;11.88;8.90;;;22.90;75.00;;;;;;5113755;28;20027;-74
2022/08/18 09:00:54;;;;;;;12.50;7.97;;;23.10;74.90;;;;;;5113867;28;20024;-74
2022/08/18 09:03:41;;;;;;;13.98;7.70;;;23.20;73.60;;;;;;5113651;28;20027;-74
2022/08/18 09:06:24;;;;;;;11.07;7.03;;;23.30;72.90;;;;;;5113590;28;20028;-74
2022/08/18 09:09:13;;;;;;;13.07;7.97;;;23.40;72.90;;;;;;5113516;28;20052;-74
2022/08/18 09:12:08;;;;;;;10.82;8.13;;;23.50;72.60;;;;;;5113600;28;20050;-74
2022/08/18 09:14:52;;;;;;;11.65;8.05;;;23.50;72.00;;;;;;5113552;28;20076;-74
2022/08/18 09:17:43;;;;;;;14.85;8.80;;;23.60;71.70;;;;;;5113635;28;20024;-74
2022/08/18 09:21:06;;;;;;;12.88;8.75;;;23.50;71.90;;;;;;5113524;28;20016;-74
2022/08/18 09:23:38;;;;;;;11.73;8.50;;;23.50;71.30;;;;;;5091478;28;20035;-74
2022/08/18 09:26:45;;;;;;;15.00;8.57;;;23.40;72.00;;;;;;5091437;28;20020;-74
2022/08/18 09:29:24;;;;;;;11.55;8.02;;;23.40;72.00;;;;;;5078691;28;20052;-74
2022/08/18 09:32:18;;;;;;;9.50;7.38;;;23.50;71.90;;;;;;5113415;28;20032;-74
2022/08/18 09:34:50;;;;;;;9.13;6.70;;;23.50;70.80;;;;;;5113485;28;20434;-74
2022/08/18 09:37:40;;;;;;;8.73;6.30;;;23.50;70.80;;;;;;5112337;28;20042;-74
2022/08/18 09:43:23;;;;;;;9.32;6.72;;;23.50;70.90;;;;;;5117667;28;20031;-74
2022/08/18 09:45:58;;;;;;;11.75;7.20;;;23.50;71.00;;;;;;5117364;28;20031;-74
2022/08/18 09:48:35;;;;;;;9.15;7.10;;;23.50;71.00;;;;;;5117225;28;20024;-74
2022/08/18 09:51:31;;;;;;;10.63;6.85;;;23.50;70.70;;;;;;5117264;28;20032;-74
2022/08/18 09:54:12;;;;;;;11.43;7.30;;;23.60;70.40;;;;;;5117403;28;20076;-74
2022/08/18 09:56:49;;;;;;;10.15;7.07;;;23.60;70.50;;;;;;5117335;28;20044;-74
2022/08/18 09:59:33;;;;;;;9.13;6.68;;;23.60;70.30;;;;;;5117221;28;20034;-74
2022/08/18 10:01:59;;;;;;;10.45;6.72;;;23.60;70.00;;;;;;5117019;28;20028;-74
2022/08/18 10:04:31;;;;;;;9.15;6.63;;;23.60;69.80;;;;;;5116969;28;20080;-74
2022/08/18 10:07:35;;;;;;;8.23;6.30;;;23.70;69.50;;;;;;5115965;28;20028;-74
2022/08/18 10:10:09;;;;;;;10.38;6.47;;;23.70;68.70;;;;;;5094468;28;20082;-74
2022/08/18 10:13:03;;;;;;;10.20;6.63;;;23.70;69.40;;;;;;5113994;28;20036;-74
2022/08/18 10:15:39;;;;;;;8.27;6.40;;;23.80;69.60;;;;;;5116851;28;20023;-74
2022/08/18 10:18:24;;;;;;;8.10;6.45;;;23.90;69.20;;;;;;5116931;28;20032;-74
2022/08/18 10:21:12;;;;;;;11.15;6.30;;;23.90;68.90;;;;;;5116825;28;20044;-74
2022/08/18 10:23:49;;;;;;;8.77;6.07;;;24.00;69.00;;;;;;5116723;28;20028;-74
2022/08/18 10:26:30;;;;;;;10.23;6.93;;;24.00;68.70;;;;;;5116791;28;20043;-74
2022/08/18 10:28:58;;;;;;;10.48;7.03;;;24.10;68.00;;;;;;5116371;28;20053;-74
2022/08/18 10:31:25;;;;;;;8.73;6.10;;;24.30;68.40;;;;;;5116521;28;20026;-74
2022/08/18 10:34:03;;;;;;;7.35;5.90;;;24.30;68.10;;;;;;5116421;28;20030;-74
2022/08/18 10:36:57;;;;;;;8.48;5.82;;;24.40;67.50;;;;;;5116447;28;20016;-74
2022/08/18 10:39:41;;;;;;;9.27;5.60;;;24.50;67.60;;;;;;5106898;28;20059;-74
2022/08/18 10:42:26;;;;;;;6.97;5.93;;;24.40;67.50;;;;;;5116343;28;20464;-74
2022/08/18 10:45:05;;;;;;;8.43;6.07;;;24.40;66.90;;;;;;5116275;28;20044;-74
2022/08/18 10:47:31;;;;;;;9.93;6.05;;;24.40;67.00;;;;;;5116109;28;20053;-74
2022/08/18 10:50:00;;;;;;;8.35;6.47;;;24.40;67.70;;;;;;5115436;28;20032;-74
2022/08/18 10:52:51;;;;;;;8.98;6.15;;;24.40;66.60;;;;;;5115745;28;20020;-74
2022/08/18 10:55:38;;;;;;;9.30;5.30;;;24.40;66.70;;;;;;5115016;28;20035;-73
2022/08/18 10:58:16;;;;;;;9.38;5.60;;;24.50;67.00;;;;;;5115998;28;20042;-74
2022/08/18 11:00:58;;;;;;;9.63;6.05;;;24.60;66.20;;;;;;5115881;28;20058;-74
2022/08/18 11:03:34;;;;;;;8.35;5.60;;;24.60;65.50;;;;;;5116063;28;20016;-73
2022/08/18 11:06:03;;;;;;;8.70;6.00;;;24.50;64.80;;;;;;5115879;28;20103;-74
2022/08/18 11:08:40;;;;;;;6.90;5.25;;;24.50;65.30;;;;;;5115517;28;20521;-74
2022/08/18 11:11:08;;;;;;;8.13;5.78;;;24.40;65.30;;;;;;5115790;28;20089;-74
2022/08/18 11:13:34;;;;;;;9.45;5.45;;;24.40;65.10;;;;;;5115666;28;20016;-74
2022/08/18 11:16:25;;;;;;;7.68;5.68;;;24.40;65.10;;;;;;5115604;28;20024;-74
2022/08/18 11:19:15;;;;;;;6.25;5.00;;;24.50;64.90;;;;;;5115739;28;20115;-74
2022/08/18 11:21:44;;;;;;;6.40;5.03;;;24.60;66.00;;;;;;5115202;28;20048;-74
2022/08/18 11:24:16;;;;;;;7.32;5.38;;;24.70;65.80;;;;;;5115448;28;20024;-74
2022/08/18 11:26:41;;;;;;;6.53;5.17;;;24.80;66.00;;;;;;5115414;28;20028;-74
2022/08/18 11:29:37;;;;;;;5.90;4.90;;;24.90;64.90;;;;;;5115200;28;20024;-74
2022/08/18 11:32:27;;;;;;;8.07;4.68;;;25.10;64.10;;;;;;5110546;28;20400;-73
2022/08/18 11:35:05;;;;;;;6.13;4.25;;;25.20;63.90;;;;;;5115367;28;20054;-74
2022/08/18 11:37:40;;;;;;;6.10;4.60;;;25.40;62.90;;;;;;5115148;28;20046;-74
2022/08/18 11:40:19;;;;;;;5.93;4.53;;;25.60;62.90;;;;;;5115350;28;20028;-74
2022/08/18 11:42:54;;;;;;;7.28;4.78;;;25.70;61.50;;;;;;5114269;28;20076;-73
2022/08/18 11:45:22;;;;;;;8.15;4.60;;;25.80;61.60;;;;;;5115045;28;20028;-73
2022/08/18 11:48:19;;;;;;;6.32;4.80;;;25.90;61.30;;;;;;5114928;28;20038;-74
2022/08/18 11:50:45;;;;;;;8.50;4.90;;;26.20;61.50;;;;;;5114957;28;20092;-73
2022/08/18 11:53:17;;;;;;;6.93;5.10;;;26.20;60.10;;;;;;5115026;28;20024;-74
2022/08/18 11:55:43;;;;;;;6.20;4.78;;;26.30;59.70;;;;;;5114885;28;20024;-74
2022/08/18 11:58:09;;;;;;;8.50;4.75;;;26.40;59.60;;;;;;5114776;28;20058;-74
2022/08/18 12:00:37;;;;;;;5.68;4.85;;;26.50;59.30;;;;;;5114717;28;20043;-74
2022/08/18 12:03:09;;;;;;;5.78;5.18;;;26.50;59.40;;;;;;5114471;28;20157;-74
2022/08/18 12:05:52;;;;;;;5.18;4.50;;;26.50;59.10;;;;;;5114913;28;20031;-74
2022/08/18 12:08:47;;;;;;;5.75;4.72;;;26.40;59.30;;;;;;5114609;28;20024;-73
2022/08/18 12:11:20;;;;;;;8.57;5.60;;;26.40;58.50;;;;;;5114470;28;20028;-74
2022/08/18 12:13:47;;;;;;;5.20;4.70;;;26.30;58.50;;;;;;5114585;28;20107;-74
2022/08/18 12:16:16;;;;;;;6.28;4.85;;;26.30;58.40;;;;;;5114450;28;20028;-73
2022/08/18 12:18:42;;;;;;;5.93;4.80;;;26.50;59.50;;;;;;5114441;28;20035;-73
2022/08/18 12:21:09;;;;;;;5.35;4.47;;;26.50;57.50;;;;;;5114359;28;20028;-74
2022/08/18 12:23:38;;;;;;;5.88;4.88;;;26.50;57.80;;;;;;5114335;28;20061;-74
2022/08/18 12:26:03;;;;;;;6.38;4.15;;;26.40;58.10;;;;;;5114406;28;20073;-73
2022/08/18 12:28:29;;;;;;;5.32;4.10;;;26.40;57.50;;;;;;5114251;28;20024;-73
2022/08/18 12:30:55;;;;;;;5.78;4.40;;;26.30;57.40;;;;;;5114139;28;20032;-74
2022/08/18 12:33:20;;;;;;;6.70;4.75;;;26.30;57.50;;;;;;5114286;28;20036;-74
2022/08/18 12:35:46;;;;;;;5.68;4.53;;;26.30;58.60;;;;;;5114249;28;20028;-73
2022/08/18 12:38:12;;;;;;;5.35;4.40;;;26.20;57.20;;;;;;5114071;28;20038;-73
2022/08/18 12:40:39;;;;;;;5.65;4.30;;;26.10;57.50;;;;;;5114077;28;20016;-74
2022/08/18 12:43:05;;;;;;;5.40;4.28;;;26.10;56.80;;;;;;5113950;28;20024;-73
2022/08/18 12:45:30;;;;;;;5.40;4.45;;;26.10;57.60;;;;;;5113018;28;20032;-73
2022/08/18 12:47:58;;;;;;;6.82;5.50;;;26.00;57.80;;;;;;5113815;28;20029;-73
2022/08/18 12:50:24;;;;;;;6.70;5.53;;;25.90;58.40;;;;;;5113861;28;20035;-73
2022/08/18 12:52:49;;;;;;;7.30;5.50;;;25.90;58.80;;;;;;5113864;28;20024;-74
2022/08/18 12:55:15;;;;;;;5.80;5.20;;;25.90;59.10;;;;;;5113784;28;20056;-73
2022/08/18 12:57:42;;;;;;;7.05;4.97;;;25.90;58.90;;;;;;5113868;28;20051;-74
2022/08/18 13:00:08;;;;;;;5.50;4.75;;;25.90;59.00;;;;;;5113744;28;20028;-74
2022/08/18 13:02:34;;;;;;;8.65;4.95;;;26.00;59.50;;;;;;5113733;28;20091;-74
2022/08/18 13:05:00;;;;;;;6.80;4.75;;;26.00;58.70;;;;;;5113643;28;20031;-74
2022/08/18 13:07:26;;;;;;;6.82;4.70;;;26.00;59.20;;;;;;5113551;28;20032;-74
2022/08/18 13:09:52;;;;;;;6.47;5.53;;;26.00;59.10;;;;;;5113427;28;20040;-73
2022/08/18 13:12:18;;;;;;;7.38;5.40;;;25.90;58.20;;;;;;5112696;28;20059;-74
2022/08/18 13:14:45;;;;;;;7.93;5.90;;;25.90;58.50;;;;;;5112950;28;20016;-74
2022/08/18 13:17:12;;;;;;;8.60;6.20;;;25.80;58.70;;;;;;5113533;28;20031;-74
2022/08/18 13:19:38;;;;;;;8.05;5.45;;;25.70;58.70;;;;;;5113515;28;20048;-74